Time;durP1;ratioP1;P1;durP2;ratioP2;P2;SDS_P1;SDS_P2;PMS_P1;PMS_P2;Temp;Humidity;BMP_temperature;BMP_pressure;BME280_temperature;BME280_humidity;BME280_pressure;Samples;Min_cycle;Max_cycle;Signal;HPM_P1;HPM_P2
2023/06/15 00:00:44;;;;;;;5.82;5.00;;;16.90;69.40;;;;;;6203135;28;20055;-82
2023/06/15 00:03:45;;;;;;;6.30;5.47;;;16.90;69.30;;;;;;6201916;28;20050;-83
2023/06/15 00:06:47;;;;;;;5.70;5.20;;;16.90;69.40;;;;;;6203593;28;20046;-82
2023/06/15 00:09:49;;;;;;;5.80;5.20;;;16.80;69.70;;;;;;6200972;28;20397;-83
2023/06/15 00:12:52;;;;;;;8.88;5.28;;;16.80;70.00;;;;;;6200984;28;20493;-82
2023/06/15 00:15:54;;;;;;;7.78;5.63;;;16.80;71.00;;;;;;6204856;28;20054;-82
2023/06/15 00:18:57;;;;;;;6.40;5.60;;;16.70;70.50;;;;;;6196211;28;20034;-83
2023/06/15 00:21:59;;;;;;;6.22;5.63;;;16.70;70.60;;;;;;6201028;28;20054;-82
2023/06/15 00:25:00;;;;;;;5.75;5.10;;;16.70;70.70;;;;;;6201438;28;20058;-84
2023/06/15 00:28:39;;;;;;;6.45;5.85;;;16.70;70.90;;;;;;6205151;28;20061;-82
2023/06/15 00:31:42;;;;;;;7.90;5.70;;;16.60;71.40;;;;;;6203331;28;20055;-83
2023/06/15 00:34:44;;;;;;;6.93;5.25;;;16.60;71.30;;;;;;6201277;28;20054;-83
2023/06/15 00:37:46;;;;;;;7.57;5.82;;;16.50;71.60;;;;;;6201550;28;20045;-83
2023/06/15 00:40:49;;;;;;;7.47;6.78;;;16.50;71.70;;;;;;6200672;28;20050;-82
2023/06/15 00:43:51;;;;;;;5.70;5.20;;;16.40;71.90;;;;;;6203938;28;20041;-82
2023/06/15 00:46:54;;;;;;;8.75;5.28;;;16.40;72.00;;;;;;6198169;28;20056;-83
2023/06/15 00:49:57;;;;;;;5.63;5.05;;;16.30;72.40;;;;;;6205973;28;20042;-83
2023/06/15 00:53:03;;;;;;;6.68;6.07;;;16.30;72.70;;;;;;6208922;28;20046;-83
2023/06/15 00:56:05;;;;;;;6.18;5.57;;;16.30;72.90;;;;;;6203629;28;20590;-82
2023/06/15 00:59:07;;;;;;;6.25;5.57;;;16.20;73.10;;;;;;6204371;28;20044;-83
2023/06/15 01:02:12;;;;;;;6.03;5.22;;;16.10;73.40;;;;;;6206492;28;20053;-83
2023/06/15 01:05:16;;;;;;;5.35;4.85;;;16.10;73.80;;;;;;6205101;28;20486;-84
2023/06/15 01:08:18;;;;;;;6.15;5.55;;;16.00;73.90;;;;;;6205393;28;20049;-82
2023/06/15 01:11:20;;;;;;;10.43;4.95;;;16.00;74.10;;;;;;6205207;28;20061;-83
2023/06/15 01:14:25;;;;;;;4.68;4.28;;;15.90;74.30;;;;;;6204296;28;21286;-82
2023/06/15 01:17:30;;;;;;;4.57;4.13;;;15.90;74.40;;;;;;6207861;28;20061;-81
2023/06/15 01:20:38;;;;;;;6.45;5.05;;;15.90;74.50;;;;;;6203234;28;20073;-82
2023/06/15 01:23:43;;;;;;;7.78;4.63;;;16.00;74.60;;;;;;6206780;28;20488;-81
2023/06/15 01:26:49;;;;;;;6.93;4.55;;;16.00;74.60;;;;;;6205304;28;20426;-83
2023/06/15 01:29:54;;;;;;;5.53;4.57;;;16.00;74.60;;;;;;6204216;28;20445;-82
2023/06/15 01:32:56;;;;;;;5.07;4.55;;;16.10;74.50;;;;;;6204516;28;20058;-82
2023/06/15 01:35:58;;;;;;;5.10;4.68;;;16.20;74.10;;;;;;6205521;28;20054;-83
2023/06/15 01:39:00;;;;;;;7.97;4.72;;;16.30;73.90;;;;;;6202311;28;20088;-83
2023/06/15 01:42:04;;;;;;;9.38;4.57;;;16.30;73.60;;;;;;6207763;28;20050;-83
2023/06/15 01:45:07;;;;;;;6.32;5.28;;;16.30;73.50;;;;;;6203499;28;20054;-82
2023/06/15 01:48:10;;;;;;;5.55;4.88;;;16.40;73.40;;;;;;6203110;28;20045;-83
2023/06/15 01:51:12;;;;;;;5.53;4.43;;;16.40;73.40;;;;;;6202908;28;20065;-81
2023/06/15 01:54:14;;;;;;;6.00;4.60;;;16.40;73.30;;;;;;6203283;28;20042;-82
2023/06/15 01:57:20;;;;;;;5.53;4.75;;;16.40;73.20;;;;;;6208804;28;20132;-81
2023/06/15 02:00:25;;;;;;;6.53;5.80;;;16.40;73.30;;;;;;6203275;28;20046;-81
2023/06/15 02:03:26;;;;;;;5.07;4.57;;;16.30;73.30;;;;;;6204603;28;20540;-82
2023/06/15 02:06:28;;;;;;;5.93;4.32;;;16.30;73.30;;;;;;6205712;28;20050;-82
2023/06/15 02:09:30;;;;;;;4.90;4.22;;;16.30;73.40;;;;;;6205919;28;20056;-82
2023/06/15 02:12:33;;;;;;;5.07;4.57;;;16.30;73.40;;;;;;6205962;28;20913;-82
2023/06/15 02:15:36;;;;;;;5.03;4.07;;;16.20;73.40;;;;;;6207045;28;20089;-82
2023/06/15 02:18:38;;;;;;;5.15;4.53;;;16.30;73.40;;;;;;6207930;28;20121;-82
2023/06/15 02:21:41;;;;;;;5.05;4.55;;;16.30;73.40;;;;;;6208646;28;20080;-82
2023/06/15 02:24:43;;;;;;;5.20;4.70;;;16.30;73.20;;;;;;6207060;28;20120;-83
2023/06/15 02:27:46;;;;;;;4.82;4.43;;;16.40;73.30;;;;;;6203900;28;20058;-82
2023/06/15 02:30:47;;;;;;;7.75;4.40;;;16.50;73.10;;;;;;6203523;28;20552;-81
2023/06/15 02:33:49;;;;;;;4.63;4.10;;;16.50;72.80;;;;;;6205230;28;20053;-83
2023/06/15 02:36:53;;;;;;;6.00;5.07;;;16.40;72.90;;;;;;6205739;28;20046;-84
2023/06/15 02:39:55;;;;;;;5.15;4.60;;;16.40;73.00;;;;;;6204691;28;20053;-82
2023/06/15 02:42:58;;;;;;;5.28;4.28;;;16.40;73.00;;;;;;6204637;28;20065;-83
2023/06/15 02:45:59;;;;;;;4.70;4.20;;;16.30;72.90;;;;;;6204750;28;20046;-83
2023/06/15 02:49:02;;;;;;;6.05;3.83;;;16.30;73.00;;;;;;6203826;28;20046;-82
2023/06/15 02:52:04;;;;;;;7.28;5.03;;;16.30;73.10;;;;;;6205043;28;20500;-82
2023/06/15 02:55:07;;;;;;;6.60;4.30;;;16.20;73.20;;;;;;6203913;28;20053;-83
2023/06/15 02:58:13;;;;;;;5.70;4.13;;;16.10;73.30;;;;;;6203664;28;20042;-83
2023/06/15 03:01:16;;;;;;;8.63;5.20;;;16.10;73.70;;;;;;6203146;28;20050;-82
2023/06/15 03:04:21;;;;;;;14.20;5.40;;;16.00;73.80;;;;;;6203294;28;20066;-83
2023/06/15 03:07:23;;;;;;;4.07;3.78;;;15.90;74.00;;;;;;6203059;28;20053;-82
2023/06/15 03:10:25;;;;;;;5.03;4.53;;;15.90;74.10;;;;;;6204331;28;20057;-80
2023/06/15 03:13:29;;;;;;;4.78;4.38;;;15.80;74.30;;;;;;6203572;28;20397;-82
2023/06/15 03:16:32;;;;;;;5.68;4.57;;;15.80;74.50;;;;;;6205940;28;20061;-82
2023/06/15 03:19:35;;;;;;;4.85;4.25;;;15.70;74.70;;;;;;6204984;28;20121;-81
2023/06/15 03:22:36;;;;;;;5.53;4.45;;;15.70;74.90;;;;;;6203527;28;20046;-82
2023/06/15 03:25:38;;;;;;;6.32;5.72;;;15.70;75.20;;;;;;6202152;28;20057;-81
2023/06/15 03:28:41;;;;;;;4.25;3.95;;;15.70;75.20;;;;;;6203524;28;20077;-82
2023/06/15 03:31:43;;;;;;;5.32;4.80;;;15.70;75.30;;;;;;6204122;28;20050;-81
2023/06/15 03:34:45;;;;;;;6.03;4.70;;;15.70;75.30;;;;;;6206720;28;20046;-81
2023/06/15 03:37:47;;;;;;;7.95;4.88;;;15.80;75.40;;;;;;6207229;28;20057;-82
2023/06/15 03:40:48;;;;;;;5.85;5.35;;;15.80;75.40;;;;;;6207562;28;20046;-82
2023/06/15 03:43:51;;;;;;;6.13;5.60;;;15.80;75.50;;;;;;6205768;28;20050;-81
2023/06/15 03:46:53;;;;;;;8.52;4.78;;;15.80;75.50;;;;;;6205103;28;20046;-82
2023/06/15 03:49:55;;;;;;;8.85;5.45;;;15.80;75.50;;;;;;6210682;28;20110;-82
2023/06/15 03:52:56;;;;;;;6.53;5.15;;;15.80;75.40;;;;;;6207446;28;20077;-83
2023/06/15 03:55:58;;;;;;;5.05;4.65;;;15.90;75.30;;;;;;6206390;28;20054;-83
2023/06/15 03:59:01;;;;;;;6.40;4.60;;;15.90;75.00;;;;;;6205681;28;20049;-83
2023/06/15 04:02:03;;;;;;;7.93;4.38;;;16.00;75.00;;;;;;6205044;28;20399;-83
2023/06/15 04:05:05;;;;;;;5.80;5.07;;;16.00;75.10;;;;;;6205520;28;20054;-83
2023/06/15 04:08:08;;;;;;;8.77;4.55;;;16.00;75.20;;;;;;6205734;28;20058;-81
2023/06/15 04:11:10;;;;;;;5.40;4.93;;;16.00;75.20;;;;;;6205486;28;20043;-82
2023/06/15 04:14:14;;;;;;;7.03;4.82;;;16.10;75.40;;;;;;6205001;28;20046;-82
2023/06/15 04:17:16;;;;;;;6.05;4.38;;;16.20;75.50;;;;;;6205635;28;20139;-82
2023/06/15 04:20:17;;;;;;;5.95;3.80;;;16.20;75.10;;;;;;6203773;28;20409;-82
2023/06/15 04:23:20;;;;;;;4.60;4.20;;;16.30;75.00;;;;;;6208207;28;20052;-82
2023/06/15 04:26:21;;;;;;;4.55;4.15;;;16.30;74.80;;;;;;6216175;28;20053;-82
2023/06/15 04:29:24;;;;;;;5.55;4.32;;;16.40;74.70;;;;;;6214718;28;20053;-82
2023/06/15 04:32:29;;;;;;;4.68;4.22;;;16.40;74.90;;;;;;6215235;28;20050;-81
2023/06/15 04:35:34;;;;;;;5.80;4.43;;;16.40;74.70;;;;;;6213953;28;20046;-81
2023/06/15 04:38:36;;;;;;;11.48;4.25;;;16.50;74.60;;;;;;6213326;28;20428;-81
2023/06/15 04:41:39;;;;;;;5.82;4.13;;;16.50;74.60;;;;;;6214160;28;20049;-82
2023/06/15 04:44:42;;;;;;;6.20;4.85;;;16.60;74.60;;;;;;6213977;28;20138;-81
2023/06/15 04:47:43;;;;;;;5.40;4.38;;;16.70;74.40;;;;;;6213381;28;20138;-81
2023/06/15 04:50:48;;;;;;;6.30;4.20;;;16.80;74.20;;;;;;6214945;28;20226;-82
2023/06/15 04:53:49;;;;;;;5.28;4.55;;;16.80;74.20;;;;;;6215384;28;20043;-82
2023/06/15 04:56:51;;;;;;;7.65;3.97;;;16.80;74.00;;;;;;6215619;28;20141;-81
2023/06/15 04:59:54;;;;;;;7.35;4.90;;;16.80;73.80;;;;;;6215493;28;20088;-81
2023/06/15 05:02:56;;;;;;;7.30;4.47;;;16.80;73.90;;;;;;6215129;28;20481;-82
2023/06/15 05:05:58;;;;;;;5.32;4.43;;;16.80;73.90;;;;;;6213216;28;20133;-81
2023/06/15 05:08:59;;;;;;;7.07;4.50;;;16.90;74.20;;;;;;6214465;28;20064;-82
2023/06/15 05:12:02;;;;;;;4.95;4.45;;;17.10;74.00;;;;;;6215667;28;20054;-82
2023/06/15 05:15:05;;;;;;;6.22;4.50;;;17.10;73.60;;;;;;6214866;28;20050;-82
2023/06/15 05:18:07;;;;;;;4.15;3.85;;;17.10;73.60;;;;;;6213801;28;20126;-83
2023/06/15 05:21:10;;;;;;;6.70;4.95;;;17.20;73.60;;;;;;6216983;28;20046;-82
2023/06/15 05:24:12;;;;;;;5.28;4.45;;;17.30;73.50;;;;;;6216203;28;20117;-82
2023/06/15 05:27:14;;;;;;;6.80;4.85;;;17.40;73.20;;;;;;6214593;28;20536;-82
2023/06/15 05:30:17;;;;;;;4.78;4.15;;;17.50;74.00;;;;;;6214203;28;20042;-82
2023/06/15 05:33:18;;;;;;;7.63;5.07;;;17.90;73.40;;;;;;6213214;28;20385;-81
2023/06/15 05:36:20;;;;;;;5.90;4.75;;;18.90;72.90;;;;;;6208722;28;20051;-83
2023/06/15 05:39:22;;;;;;;6.32;4.32;;;20.70;70.80;;;;;;6209529;28;20072;-81
2023/06/15 05:42:26;;;;;;;3.92;3.53;;;22.70;66.50;;;;;;6211305;28;20050;-82
2023/06/15 05:45:30;;;;;;;3.53;3.10;;;24.30;61.50;;;;;;6212491;28;20042;-82
2023/06/15 05:48:31;;;;;;;4.07;3.67;;;25.50;58.70;;;;;;6214408;28;20165;-82
2023/06/15 05:51:33;;;;;;;4.53;3.90;;;26.70;55.90;;;;;;6213213;28;20042;-83
2023/06/15 05:54:34;;;;;;;3.15;2.95;;;27.20;53.70;;;;;;6212020;28;20062;-83
2023/06/15 05:57:36;;;;;;;3.20;2.90;;;27.30;51.20;;;;;;6212224;28;20493;-82
2023/06/15 06:00:39;;;;;;;5.13;3.08;;;27.30;50.90;;;;;;6211842;28;20042;-82
2023/06/15 06:03:41;;;;;;;7.97;3.95;;;27.40;50.20;;;;;;6212915;28;20047;-83
2023/06/15 06:06:43;;;;;;;5.10;2.92;;;27.80;49.20;;;;;;6211915;28;20129;-84
2023/06/15 06:09:44;;;;;;;3.53;3.22;;;28.10;48.30;;;;;;6210373;28;20053;-84
2023/06/15 06:12:46;;;;;;;4.95;3.30;;;28.30;47.70;;;;;;6212969;28;20145;-83
2023/06/15 06:15:49;;;;;;;4.35;3.95;;;28.10;47.30;;;;;;6213381;28;20046;-84
2023/06/15 06:18:51;;;;;;;3.70;3.25;;;28.00;47.10;;;;;;6209779;28;20429;-83
2023/06/15 06:21:53;;;;;;;6.43;3.63;;;27.70;46.90;;;;;;6210638;28;20053;-84
2023/06/15 06:24:54;;;;;;;3.42;3.08;;;27.40;47.20;;;;;;6205606;28;20058;-82
2023/06/15 06:27:56;;;;;;;5.25;3.85;;;27.10;47.20;;;;;;6212918;28;20060;-83
2023/06/15 06:30:59;;;;;;;3.85;2.95;;;27.00;47.50;;;;;;6213777;28;20052;-84
2023/06/15 06:34:01;;;;;;;10.27;3.40;;;26.90;47.70;;;;;;6213136;28;20046;-83
2023/06/15 06:37:03;;;;;;;5.10;3.33;;;27.20;47.40;;;;;;6213529;28;20046;-83
2023/06/15 06:40:06;;;;;;;7.85;2.83;;;27.50;46.70;;;;;;6212977;28;20046;-84
2023/06/15 06:43:07;;;;;;;4.47;3.70;;;27.60;46.50;;;;;;6208120;28;20046;-84
2023/06/15 06:46:13;;;;;;;4.75;2.92;;;27.80;46.50;;;;;;6207685;28;20050;-85
2023/06/15 06:49:14;;;;;;;4.63;3.47;;;27.70;45.70;;;;;;6208233;28;20086;-83
2023/06/15 06:52:16;;;;;;;4.55;4.15;;;27.40;46.20;;;;;;6210947;28;20050;-84
2023/06/15 06:55:18;;;;;;;5.60;3.08;;;27.40;46.30;;;;;;6209699;28;20050;-84
2023/06/15 06:58:20;;;;;;;4.47;3.50;;;27.40;46.50;;;;;;6209818;28;20046;-81
2023/06/15 07:01:26;;;;;;;5.22;3.95;;;27.30;46.40;;;;;;6198160;28;20050;-82
2023/06/15 07:04:28;;;;;;;5.80;4.32;;;27.50;46.60;;;;;;6203362;28;20052;-82
2023/06/15 07:07:29;;;;;;;6.63;3.92;;;27.50;46.30;;;;;;6202233;28;20042;-82
2023/06/15 07:10:31;;;;;;;11.10;4.63;;;27.70;46.30;;;;;;6199447;28;20046;-83
2023/06/15 07:13:33;;;;;;;3.70;3.10;;;27.70;45.80;;;;;;6202822;28;20528;-82
2023/06/15 07:16:36;;;;;;;3.85;3.55;;;27.70;46.20;;;;;;6206695;28;20053;-82
2023/06/15 07:19:38;;;;;;;4.05;3.40;;;27.80;45.90;;;;;;6201836;28;20050;-83
2023/06/15 07:22:40;;;;;;;5.10;3.80;;;27.60;46.00;;;;;;6203122;28;20050;-81
2023/06/15 07:25:42;;;;;;;5.65;3.25;;;27.70;46.20;;;;;;6204186;28;20050;-81
2023/06/15 07:28:43;;;;;;;3.97;3.67;;;27.90;45.90;;;;;;6206619;28;20077;-82
2023/06/15 07:31:47;;;;;;;3.22;3.00;;;28.00;45.90;;;;;;6198233;28;20056;-79
2023/06/15 07:34:48;;;;;;;4.22;3.83;;;28.30;45.50;;;;;;6199349;28;20073;-82
2023/06/15 07:37:50;;;;;;;5.07;3.78;;;28.40;45.40;;;;;;6200286;28;20092;-82
2023/06/15 07:40:52;;;;;;;4.22;3.58;;;28.70;45.30;;;;;;6202489;28;20046;-81
2023/06/15 07:43:53;;;;;;;4.53;3.40;;;29.00;44.80;;;;;;6199249;28;20070;-81
2023/06/15 07:46:56;;;;;;;7.07;3.53;;;29.00;44.80;;;;;;6202396;28;20150;-81
2023/06/15 07:49:58;;;;;;;6.90;3.25;;;29.00;44.20;;;;;;6202990;28;20499;-80
2023/06/15 07:53:00;;;;;;;5.65;4.32;;;28.80;44.20;;;;;;6203628;28;20050;-82
2023/06/15 07:56:02;;;;;;;4.63;3.85;;;28.80;44.80;;;;;;6199170;28;20050;-81
2023/06/15 07:59:04;;;;;;;7.82;4.18;;;29.00;44.40;;;;;;6197835;28;20042;-81
2023/06/15 08:02:08;;;;;;;5.03;4.45;;;29.30;43.60;;;;;;6197831;28;20046;-81
2023/06/15 08:05:10;;;;;;;3.97;3.67;;;29.20;43.80;;;;;;6199497;28;20413;-81
2023/06/15 08:08:11;;;;;;;5.28;3.70;;;29.00;43.80;;;;;;6196010;28;20052;-81
2023/06/15 08:11:16;;;;;;;4.90;3.60;;;28.70;43.90;;;;;;6194075;28;20868;-81
2023/06/15 08:14:19;;;;;;;4.32;3.92;;;28.50;44.20;;;;;;6195518;28;20045;-81
2023/06/15 08:17:22;;;;;;;4.20;3.80;;;28.30;44.40;;;;;;6195678;28;20085;-79
2023/06/15 08:20:23;;;;;;;4.93;3.90;;;28.00;44.50;;;;;;6202053;28;20046;-80
2023/06/15 08:23:25;;;;;;;4.30;3.90;;;27.80;45.30;;;;;;6203311;28;20493;-79
2023/06/15 08:26:27;;;;;;;6.50;4.13;;;27.90;45.20;;;;;;6198617;28;20521;-77
2023/06/15 08:29:28;;;;;;;5.05;3.78;;;27.60;45.60;;;;;;6194115;28;20062;-77
2023/06/15 08:32:31;;;;;;;8.88;4.53;;;27.10;46.20;;;;;;6197772;28;20054;-81
2023/06/15 08:35:33;;;;;;;5.45;3.45;;;26.40;47.20;;;;;;6197473;28;20050;-81
2023/06/15 08:38:35;;;;;;;5.55;4.05;;;26.30;47.80;;;;;;6200303;28;20062;-80
2023/06/15 08:41:37;;;;;;;9.45;4.40;;;26.40;47.70;;;;;;6193346;28;20061;-80
2023/06/15 08:44:42;;;;;;;4.55;4.15;;;26.50;47.40;;;;;;6194540;28;20054;-80
2023/06/15 08:47:45;;;;;;;5.00;4.53;;;26.40;47.40;;;;;;6195076;28;20061;-81
2023/06/15 08:50:49;;;;;;;4.75;3.85;;;26.50;47.50;;;;;;6196846;28;20049;-79
2023/06/15 08:53:54;;;;;;;4.43;4.03;;;26.60;47.40;;;;;;6194565;28;20398;-81
2023/06/15 08:56:56;;;;;;;5.13;4.65;;;26.80;47.40;;;;;;6195920;28;20515;-82
2023/06/15 08:59:58;;;;;;;5.03;3.95;;;27.00;47.40;;;;;;6200049;28;20050;-81
2023/06/15 09:03:04;;;;;;;4.45;3.83;;;27.30;47.40;;;;;;6195450;28;20049;-81
2023/06/15 09:06:06;;;;;;;5.38;3.38;;;27.70;47.30;;;;;;6199086;28;21114;-80
2023/06/15 09:09:09;;;;;;;6.10;3.75;;;28.00;46.70;;;;;;6198176;28;20489;-80
2023/06/15 09:12:19;;;;;;;3.90;3.50;;;28.20;46.20;;;;;;6195146;28;20043;-81
2023/06/15 09:15:22;;;;;;;4.20;3.90;;;28.10;46.50;;;;;;6197394;28;20425;-82
2023/06/15 09:18:25;;;;;;;4.95;3.88;;;28.30;46.10;;;;;;6199220;28;20048;-81
2023/06/15 09:21:30;;;;;;;6.28;3.80;;;28.50;45.40;;;;;;6198386;28;20073;-80
2023/06/15 09:24:31;;;;;;;4.93;4.32;;;28.70;45.20;;;;;;6197476;28;20054;-82
2023/06/15 09:27:35;;;;;;;5.80;3.78;;;28.90;45.00;;;;;;6199710;28;20125;-81
2023/06/15 09:30:38;;;;;;;5.47;4.97;;;29.10;44.80;;;;;;6199664;28;20177;-80
2023/06/15 09:33:41;;;;;;;6.57;4.32;;;29.20;44.60;;;;;;6199543;28;20406;-81
2023/06/15 09:36:46;;;;;;;4.88;4.00;;;29.20;44.30;;;;;;6198905;28;20395;-81
2023/06/15 09:39:48;;;;;;;5.43;4.93;;;28.80;44.10;;;;;;6202381;28;20050;-81
2023/06/15 09:42:51;;;;;;;4.35;4.05;;;28.40;44.40;;;;;;6197245;28;20057;-81
2023/06/15 09:45:53;;;;;;;4.00;3.65;;;28.40;44.30;;;;;;6199130;28;20502;-81
2023/06/15 09:48:56;;;;;;;4.57;4.00;;;28.30;44.50;;;;;;6198977;28;20061;-81
2023/06/15 09:52:00;;;;;;;4.40;3.95;;;28.00;44.10;;;;;;6198709;28;20051;-82
2023/06/15 09:55:03;;;;;;;6.00;4.50;;;27.80;44.70;;;;;;6200588;28;20046;-82
2023/06/15 09:58:05;;;;;;;4.32;3.53;;;27.90;44.50;;;;;;6196963;28;20113;-81
2023/06/15 10:01:10;;;;;;;6.85;4.88;;;27.90;44.40;;;;;;6201065;28;20054;-82
2023/06/15 10:04:14;;;;;;;6.18;3.67;;;27.90;44.40;;;;;;6202018;28;20417;-82
2023/06/15 10:07:19;;;;;;;4.43;3.72;;;27.80;44.30;;;;;;6197379;28;20170;-82
2023/06/15 10:10:21;;;;;;;3.95;3.58;;;27.80;44.00;;;;;;6198463;28;20042;-79
2023/06/15 10:13:26;;;;;;;3.63;3.05;;;28.00;43.40;;;;;;6199391;28;20509;-81
2023/06/15 10:16:30;;;;;;;4.32;2.83;;;28.10;42.10;;;;;;6199636;28;20074;-80
2023/06/15 10:19:38;;;;;;;3.97;3.50;;;27.90;41.00;;;;;;6197890;28;20065;-80
2023/06/15 10:22:46;;;;;;;5.30;3.00;;;27.70;41.50;;;;;;6198490;28;20152;-83
2023/06/15 10:25:48;;;;;;;3.38;2.90;;;27.60;41.30;;;;;;6200324;28;20073;-80
2023/06/15 10:28:56;;;;;;;5.22;3.53;;;27.90;42.00;;;;;;6198522;28;20062;-82
2023/06/15 10:32:12;;;;;;;3.92;3.10;;;28.30;41.80;;;;;;6199878;28;20054;-82
2023/06/15 10:35:22;;;;;;;3.72;3.05;;;28.80;41.30;;;;;;6200315;28;20054;-82
2023/06/15 10:38:32;;;;;;;5.82;3.58;;;29.40;41.00;;;;;;6198983;28;20050;-80
2023/06/15 10:41:34;;;;;;;6.15;3.53;;;29.70;40.40;;;;;;6198279;28;20050;-82
2023/06/15 10:44:36;;;;;;;5.75;3.40;;;29.80;39.70;;;;;;6199762;28;20046;-82
2023/06/15 10:47:49;;;;;;;3.70;3.25;;;29.60;39.20;;;;;;6198855;28;20043;-82
2023/06/15 10:50:52;;;;;;;6.13;3.08;;;29.40;39.10;;;;;;6198352;28;20046;-79
2023/06/15 10:53:55;;;;;;;4.32;2.88;;;29.20;39.00;;;;;;6201382;28;20060;-81
2023/06/15 10:56:58;;;;;;;4.00;3.42;;;28.90;38.90;;;;;;6197022;28;20066;-81
2023/06/15 10:59:59;;;;;;;4.10;3.75;;;28.80;39.00;;;;;;6199547;28;20050;-81
2023/06/15 11:03:02;;;;;;;3.60;3.30;;;28.90;39.20;;;;;;6198389;28;20046;-82
2023/06/15 11:06:08;;;;;;;3.42;3.10;;;29.10;39.60;;;;;;6197432;28;20066;-83
2023/06/15 11:09:13;;;;;;;4.05;3.55;;;29.90;39.20;;;;;;6197782;28;20054;-82
2023/06/15 11:12:34;;;;;;;8.43;3.60;;;30.40;38.40;;;;;;6198118;28;20049;-82
2023/06/15 11:15:37;;;;;;;3.80;3.40;;;30.40;37.70;;;;;;6198003;28;20062;-80
2023/06/15 11:18:56;;;;;;;6.25;3.08;;;30.60;38.10;;;;;;6193027;28;20073;-82
2023/06/15 11:22:01;;;;;;;3.75;3.25;;;30.70;38.10;;;;;;6195100;28;20065;-84
2023/06/15 11:25:03;;;;;;;4.30;3.17;;;31.00;37.80;;;;;;6199029;28;20050;-82
2023/06/15 11:28:06;;;;;;;6.20;2.88;;;31.20;37.50;;;;;;6201442;28;20085;-83
2023/06/15 11:31:08;;;;;;;3.30;3.00;;;31.60;37.40;;;;;;6202461;28;20046;-84
2023/06/15 11:34:10;;;;;;;5.25;3.20;;;32.30;37.30;;;;;;6193551;28;20054;-83
2023/06/15 11:37:16;;;;;;;4.95;3.47;;;32.50;36.50;;;;;;6195282;28;20082;-84
2023/06/15 11:40:17;;;;;;;3.50;3.20;;;32.20;36.70;;;;;;6200881;28;20058;-82
2023/06/15 11:43:19;;;;;;;3.78;3.47;;;31.80;36.00;;;;;;6202609;28;20046;-84
2023/06/15 11:46:22;;;;;;;7.32;3.22;;;31.40;36.20;;;;;;6202268;28;20050;-82
2023/06/15 11:49:24;;;;;;;3.55;3.13;;;31.10;36.30;;;;;;6200451;28;20053;-85
2023/06/15 11:52:27;;;;;;;2.60;2.40;;;31.40;35.70;;;;;;6202343;28;20053;-83
2023/06/15 11:55:29;;;;;;;3.45;3.15;;;31.60;35.60;;;;;;6201853;28;20057;-85
2023/06/15 11:58:31;;;;;;;4.60;3.17;;;31.90;35.80;;;;;;6201862;28;20128;-82
2023/06/15 12:01:36;;;;;;;3.10;2.80;;;32.10;35.40;;;;;;6201406;28;20133;-82
2023/06/15 12:04:37;;;;;;;3.47;3.17;;;32.30;35.10;;;;;;6202784;28;20050;-83
2023/06/15 12:07:41;;;;;;;3.13;2.83;;;32.80;35.80;;;;;;6201833;28;20046;-84
2023/06/15 12:10:43;;;;;;;5.03;3.45;;;33.00;34.70;;;;;;6203726;28;20108;-85
2023/06/15 12:13:45;;;;;;;3.53;3.00;;;32.50;34.50;;;;;;6205058;28;20046;-83
2023/06/15 12:16:50;;;;;;;4.82;3.33;;;31.80;34.80;;;;;;6203389;28;20053;-84
2023/06/15 12:19:59;;;;;;;3.55;3.03;;;31.50;34.90;;;;;;6205372;28;20498;-82
2023/06/15 12:23:02;;;;;;;3.22;2.92;;;31.40;34.90;;;;;;6178296;28;20046;-83
2023/06/15 12:26:04;;;;;;;4.05;3.35;;;31.40;34.70;;;;;;6178541;28;20064;-84
2023/06/15 12:29:15;;;;;;;4.90;3.55;;;31.40;34.60;;;;;;6194820;28;20057;-83
2023/06/15 12:32:22;;;;;;;3.03;2.72;;;31.40;34.80;;;;;;6202193;28;20057;-82
2023/06/15 12:35:26;;;;;;;3.38;3.08;;;31.10;34.60;;;;;;6201589;28;20394;-81
2023/06/15 12:38:30;;;;;;;2.70;2.50;;;30.90;35.20;;;;;;6201626;28;20482;-84
2023/06/15 12:41:32;;;;;;;5.60;3.20;;;30.40;36.00;;;;;;6201826;28;20054;-83
2023/06/15 12:44:34;;;;;;;3.90;3.53;;;30.10;36.60;;;;;;6203913;28;20065;-84
2023/06/15 12:47:36;;;;;;;5.13;3.10;;;29.90;37.00;;;;;;6205906;28;20050;-84
2023/06/15 12:50:37;;;;;;;3.63;3.30;;;30.00;37.10;;;;;;6206226;28;20046;-84
2023/06/15 12:53:40;;;;;;;3.40;3.10;;;29.90;37.10;;;;;;6206113;28;20042;-82
2023/06/15 12:56:42;;;;;;;6.13;3.33;;;30.10;37.10;;;;;;6205849;28;20046;-83
2023/06/15 12:59:44;;;;;;;4.18;3.47;;;30.30;37.10;;;;;;6204792;28;20054;-83
2023/06/15 13:02:46;;;;;;;4.78;3.63;;;30.80;37.00;;;;;;6205635;28;20046;-82
2023/06/15 13:05:47;;;;;;;3.55;3.25;;;31.50;36.50;;;;;;6205731;28;20049;-82
2023/06/15 13:08:51;;;;;;;3.63;3.10;;;32.00;35.90;;;;;;6206265;28;20114;-79
2023/06/15 13:11:52;;;;;;;4.95;3.28;;;32.20;35.10;;;;;;6205372;28;20502;-79
2023/06/15 13:14:55;;;;;;;3.45;3.15;;;32.00;34.80;;;;;;6205473;28;20050;-79
2023/06/15 13:17:57;;;;;;;5.72;3.22;;;31.70;35.00;;;;;;6205399;28;20043;-79
2023/06/15 13:20:59;;;;;;;3.45;3.15;;;31.90;34.90;;;;;;6205038;28;20046;-80
2023/06/15 13:24:03;;;;;;;5.68;3.20;;;31.80;34.60;;;;;;6206263;28;20054;-79
2023/06/15 13:27:07;;;;;;;7.55;3.67;;;32.00;34.50;;;;;;6205467;28;20054;-79
2023/06/15 13:30:10;;;;;;;8.35;3.47;;;32.20;35.00;;;;;;6204299;28;20085;-81
2023/06/15 13:33:12;;;;;;;7.30;3.35;;;32.40;34.70;;;;;;6204122;28;20543;-80
2023/06/15 13:36:14;;;;;;;3.85;3.20;;;32.30;34.80;;;;;;6205378;28;20050;-80
2023/06/15 13:39:17;;;;;;;4.45;3.53;;;32.40;34.80;;;;;;6206352;28;20038;-80
2023/06/15 13:42:19;;;;;;;3.10;2.80;;;32.80;34.60;;;;;;6204883;28;20050;-77
2023/06/15 13:45:22;;;;;;;4.55;3.22;;;33.30;34.20;;;;;;6205212;28;20050;-79
2023/06/15 13:48:24;;;;;;;5.85;3.35;;;33.60;34.10;;;;;;6204748;28;20049;-80
2023/06/15 13:51:25;;;;;;;4.30;3.70;;;33.90;33.80;;;;;;6204973;28;20042;-80
2023/06/15 13:54:29;;;;;;;6.95;3.13;;;34.20;33.30;;;;;;6204390;28;20070;-79
2023/06/15 13:57:30;;;;;;;3.70;3.33;;;33.80;33.20;;;;;;6203699;28;20042;-80
2023/06/15 14:00:32;;;;;;;3.30;2.92;;;34.00;33.30;;;;;;6200074;28;20422;-78
2023/06/15 14:03:34;;;;;;;5.07;3.08;;;34.40;32.90;;;;;;6204813;28;20046;-80
2023/06/15 14:06:36;;;;;;;7.18;4.13;;;34.90;32.80;;;;;;6198744;28;20052;-77
2023/06/15 14:09:39;;;;;;;2.95;2.70;;;35.00;32.20;;;;;;6205621;28;20066;-80
2023/06/15 14:12:41;;;;;;;3.05;2.83;;;35.10;32.20;;;;;;6207217;28;20050;-78
2023/06/15 14:15:48;;;;;;;7.00;3.25;;;35.30;32.20;;;;;;6206387;28;20065;-80
2023/06/15 14:18:51;;;;;;;4.50;3.08;;;35.70;31.80;;;;;;6204069;28;20216;-77
2023/06/15 14:21:53;;;;;;;5.47;3.30;;;36.00;31.60;;;;;;6202052;28;20098;-79
2023/06/15 14:24:56;;;;;;;3.50;3.20;;;36.10;31.20;;;;;;6203683;28;20046;-78
2023/06/15 14:27:58;;;;;;;3.13;2.78;;;36.30;31.20;;;;;;6199765;28;20077;-78
2023/06/15 14:31:00;;;;;;;3.10;2.70;;;36.20;31.00;;;;;;6199887;28;20058;-79
2023/06/15 14:34:01;;;;;;;3.35;2.88;;;36.00;30.90;;;;;;6201258;28;20066;-82
2023/06/15 14:37:03;;;;;;;2.97;2.72;;;35.80;30.90;;;;;;6204051;28;20433;-79
2023/06/15 14:40:07;;;;;;;4.25;3.42;;;35.60;31.00;;;;;;6201102;28;20042;-79
2023/06/15 14:43:09;;;;;;;5.82;3.33;;;35.30;31.20;;;;;;6202315;28;20046;-80
2023/06/15 14:46:11;;;;;;;7.40;3.40;;;35.50;31.00;;;;;;6199567;28;20410;-77
2023/06/15 14:49:13;;;;;;;9.00;4.38;;;35.50;30.70;;;;;;6198551;28;20136;-77
2023/06/15 14:52:15;;;;;;;4.63;3.40;;;35.60;30.60;;;;;;6202698;28;20046;-80
2023/06/15 14:55:19;;;;;;;6.05;3.22;;;35.60;30.10;;;;;;6201288;28;20050;-80
2023/06/15 14:58:21;;;;;;;2.92;2.63;;;35.70;30.10;;;;;;6200846;28;20124;-80
2023/06/15 15:01:23;;;;;;;6.70;2.90;;;35.80;30.10;;;;;;6204794;28;20045;-80
2023/06/15 15:04:25;;;;;;;6.53;3.00;;;35.90;30.30;;;;;;6201233;28;20053;-77
2023/06/15 15:07:26;;;;;;;4.30;3.13;;;35.60;30.60;;;;;;6201546;28;20057;-79
2023/06/15 15:10:29;;;;;;;3.97;2.80;;;35.20;30.90;;;;;;6202169;28;20038;-78
2023/06/15 15:13:31;;;;;;;7.55;2.88;;;34.30;31.20;;;;;;6199956;28;20469;-78
2023/06/15 15:16:33;;;;;;;3.83;3.53;;;33.80;31.70;;;;;;6199493;28;20054;-78
2023/06/15 15:19:35;;;;;;;3.20;2.95;;;33.50;31.90;;;;;;6200969;28;20053;-78
2023/06/15 15:22:37;;;;;;;5.95;5.03;;;33.30;32.30;;;;;;6204240;28;20049;-77
2023/06/15 15:25:40;;;;;;;5.32;3.85;;;33.20;32.80;;;;;;6204635;28;20425;-78
2023/06/15 15:28:42;;;;;;;3.55;3.25;;;33.40;32.10;;;;;;6199835;28;20058;-77
2023/06/15 15:31:44;;;;;;;3.78;3.38;;;33.30;32.20;;;;;;6197642;28;20042;-78
2023/06/15 15:34:46;;;;;;;5.65;3.60;;;33.30;32.50;;;;;;6198247;28;20417;-79
2023/06/15 15:37:48;;;;;;;4.18;2.55;;;33.70;32.40;;;;;;6199424;28;20057;-78
2023/06/15 15:40:51;;;;;;;2.75;2.55;;;34.00;31.90;;;;;;6198979;28;20070;-78
2023/06/15 15:43:53;;;;;;;2.60;2.40;;;34.40;31.00;;;;;;6200295;28;20419;-79
2023/06/15 15:46:54;;;;;;;3.63;3.25;;;34.50;30.50;;;;;;6200183;28;20042;-78
2023/06/15 15:49:56;;;;;;;5.40;2.53;;;34.60;30.00;;;;;;6204239;28;20981;-78